createdAt,value
2022-09-26T00:00:34.031Z,947.63
2022-09-26T00:01:34.127Z,947.61
2022-09-26T00:02:34.131Z,947.64
2022-09-26T00:03:34.023Z,947.65
2022-09-26T00:04:33.987Z,947.65
2022-09-26T00:05:34.142Z,947.61
2022-09-26T00:06:33.953Z,947.60
2022-09-26T00:07:33.964Z,947.61
2022-09-26T00:08:33.949Z,947.61
2022-09-26T00:09:33.920Z,947.58
2022-09-26T00:10:33.919Z,947.56
2022-09-26T00:11:33.919Z,947.60
2022-09-26T00:12:33.874Z,947.59
2022-09-26T00:13:33.914Z,947.59
2022-09-26T00:14:33.887Z,947.58
2022-09-26T00:15:33.858Z,947.56
2022-09-26T00:16:33.885Z,947.51
2022-09-26T00:17:33.812Z,947.50
2022-09-26T00:18:33.820Z,947.53
2022-09-26T00:19:33.789Z,947.53
2022-09-26T00:20:33.794Z,947.51
2022-09-26T00:21:33.763Z,947.47
2022-09-26T00:22:33.736Z,947.47
2022-09-26T00:23:33.734Z,947.45
2022-09-26T00:24:33.720Z,947.49
2022-09-26T00:25:33.727Z,947.45
2022-09-26T00:26:33.711Z,947.48
2022-09-26T00:27:33.680Z,947.46
2022-09-26T00:28:33.653Z,947.45
2022-09-26T00:29:33.653Z,947.46
2022-09-26T00:30:33.696Z,947.46
2022-09-26T00:31:33.625Z,947.46
2022-09-26T00:32:33.678Z,947.48
2022-09-26T00:33:33.617Z,947.46
2022-09-26T00:34:33.599Z,947.45
2022-09-26T00:35:33.570Z,947.46
2022-09-26T00:36:38.101Z,947.42
2022-09-26T00:37:33.561Z,947.46
2022-09-26T00:38:33.552Z,947.43
2022-09-26T00:39:33.524Z,947.49
2022-09-26T00:40:33.534Z,947.41
2022-09-26T00:41:33.527Z,947.41
2022-09-26T00:42:33.466Z,947.41
2022-09-26T00:43:33.464Z,947.43
2022-09-26T00:44:33.450Z,947.38
2022-09-26T00:45:33.486Z,947.39
2022-09-26T00:46:33.500Z,947.38
2022-09-26T00:47:33.424Z,947.39
2022-09-26T00:48:33.390Z,947.37
2022-09-26T00:49:33.390Z,947.37
2022-09-26T00:50:33.364Z,947.37
2022-09-26T00:51:33.385Z,947.36
2022-09-26T00:52:33.372Z,947.35
2022-09-26T00:53:33.329Z,947.39
2022-09-26T00:54:33.313Z,947.35
2022-09-26T00:55:33.302Z,947.33
2022-09-26T00:56:33.285Z,947.33
2022-09-26T00:57:33.299Z,947.31
2022-09-26T00:58:33.258Z,947.28
2022-09-26T00:59:33.284Z,947.30
2022-09-26T01:00:34.209Z,947.28
2022-09-26T01:01:33.411Z,947.26
2022-09-26T01:02:33.337Z,947.23
2022-09-26T01:03:33.221Z,947.27
2022-09-26T01:04:33.184Z,947.21
2022-09-26T01:05:33.164Z,947.21
2022-09-26T01:06:33.158Z,947.19
2022-09-26T01:07:33.171Z,947.22
2022-09-26T01:08:33.136Z,947.22
2022-09-26T01:09:33.116Z,947.22
2022-09-26T01:10:33.129Z,947.18
2022-09-26T01:11:33.091Z,947.21
2022-09-26T01:12:33.067Z,947.21
2022-09-26T01:13:33.055Z,947.18
2022-09-26T01:14:33.070Z,947.20
2022-09-26T01:15:33.114Z,947.19
2022-09-26T01:16:33.081Z,947.22
2022-09-26T01:17:33.016Z,947.20
2022-09-26T01:18:32.992Z,947.18
2022-09-26T01:19:32.986Z,947.17
2022-09-26T01:20:33.006Z,947.17
2022-09-26T01:21:33.037Z,947.16
2022-09-26T01:22:32.936Z,947.16
2022-09-26T01:23:32.924Z,947.16
2022-09-26T01:24:32.908Z,947.14
2022-09-26T01:25:32.926Z,947.15
2022-09-26T01:26:32.887Z,947.13
2022-09-26T01:27:32.885Z,947.11
2022-09-26T01:28:32.865Z,947.08
2022-09-26T01:29:32.849Z,947.09
2022-09-26T01:30:32.921Z,947.12
2022-09-26T01:31:32.824Z,947.04
2022-09-26T01:32:32.826Z,947.09
2022-09-26T01:33:32.797Z,947.07
2022-09-26T01:34:32.785Z,946.99
2022-09-26T01:35:32.818Z,947.02
2022-09-26T01:36:32.754Z,947.01
2022-09-26T01:37:32.737Z,947.03
2022-09-26T01:38:32.805Z,947.01
2022-09-26T01:39:32.724Z,947.01
2022-09-26T01:40:32.770Z,947.03
2022-09-26T01:41:32.691Z,947.02
2022-09-26T01:42:32.675Z,947.03
2022-09-26T01:43:32.688Z,947.06
2022-09-26T01:44:32.665Z,947.05
2022-09-26T01:45:32.701Z,947.07
2022-09-26T01:46:32.636Z,947.00
2022-09-26T01:47:32.606Z,947.01
2022-09-26T01:48:32.625Z,947.00
2022-09-26T01:49:32.620Z,947.00
2022-09-26T01:50:32.562Z,946.98
2022-09-26T01:51:32.587Z,946.97
2022-09-26T01:52:32.539Z,946.98
2022-09-26T01:53:32.525Z,946.92
2022-09-26T01:54:32.514Z,946.96
2022-09-26T01:55:32.528Z,946.94
2022-09-26T01:56:32.515Z,946.97
2022-09-26T01:57:32.478Z,946.94
2022-09-26T01:58:32.443Z,946.95
2022-09-26T01:59:32.465Z,946.91
2022-09-26T02:04:14.284Z,946.96
2022-09-26T02:05:15.259Z,946.96
2022-09-26T02:06:15.238Z,946.96
2022-09-26T02:07:15.228Z,946.98
2022-09-26T02:08:15.215Z,946.99
2022-09-26T02:09:15.286Z,946.94
2022-09-26T02:10:15.192Z,946.97
2022-09-26T02:11:15.179Z,946.95
2022-09-26T02:12:15.194Z,946.92
2022-09-26T02:13:15.146Z,946.91
2022-09-26T02:14:15.145Z,946.91
2022-09-26T02:15:15.118Z,946.89
2022-09-26T02:16:15.184Z,946.88
2022-09-26T02:17:15.126Z,946.88
2022-09-26T02:18:15.083Z,946.89
2022-09-26T02:19:15.206Z,946.91
2022-09-26T02:20:15.064Z,946.90
2022-09-26T02:21:15.055Z,946.90
2022-09-26T02:22:15.051Z,946.86
2022-09-26T02:23:15.033Z,946.84
2022-09-26T02:24:14.998Z,946.85
2022-09-26T02:25:14.979Z,946.86
2022-09-26T02:26:14.975Z,946.86
2022-09-26T02:27:14.980Z,946.88
2022-09-26T02:28:14.976Z,946.88
2022-09-26T02:29:15.154Z,946.84
2022-09-26T02:30:14.928Z,946.84
2022-09-26T02:31:14.903Z,946.83
2022-09-26T02:32:15.000Z,946.84
2022-09-26T02:33:14.895Z,946.86
2022-09-26T02:34:14.870Z,946.86
2022-09-26T02:35:14.857Z,946.87
2022-09-26T02:36:14.842Z,946.89
2022-09-26T02:37:14.879Z,946.85
2022-09-26T02:38:14.822Z,946.83
2022-09-26T02:39:15.011Z,946.84
2022-09-26T02:40:14.845Z,946.82
2022-09-26T02:41:14.778Z,946.80
2022-09-26T02:42:14.753Z,946.81
2022-09-26T02:43:14.756Z,946.77
2022-09-26T02:44:14.785Z,946.82
2022-09-26T02:45:14.738Z,946.81
2022-09-26T02:46:14.834Z,946.84
2022-09-26T02:47:14.705Z,946.86
2022-09-26T02:48:14.685Z,946.83
2022-09-26T02:49:14.874Z,946.85
2022-09-26T02:50:14.661Z,946.82
2022-09-26T02:51:14.643Z,946.87
2022-09-26T02:52:14.632Z,946.85
2022-09-26T02:53:14.652Z,946.81
2022-09-26T02:54:14.598Z,946.84
2022-09-26T02:55:14.616Z,946.86
2022-09-26T02:56:14.618Z,946.80
2022-09-26T02:57:14.558Z,946.81
2022-09-26T02:58:14.550Z,946.74
2022-09-26T02:59:14.629Z,946.77
2022-09-26T03:00:14.523Z,946.80
2022-09-26T03:01:14.586Z,946.79
2022-09-26T03:02:14.497Z,946.84
2022-09-26T03:03:14.517Z,946.80
2022-09-26T03:04:14.575Z,946.82
2022-09-26T03:05:14.454Z,946.78
2022-09-26T03:06:14.467Z,946.78
2022-09-26T03:07:14.424Z,946.78
2022-09-26T03:08:14.414Z,946.76
2022-09-26T03:09:14.524Z,946.78
2022-09-26T03:10:14.383Z,946.78
2022-09-26T03:11:14.400Z,946.77
2022-09-26T03:12:14.355Z,946.79
2022-09-26T03:13:14.345Z,946.78
2022-09-26T03:14:14.342Z,946.76
2022-09-26T03:15:14.307Z,946.77
2022-09-26T03:16:14.360Z,946.77
2022-09-26T03:17:14.296Z,946.74
2022-09-26T03:18:14.275Z,946.78
2022-09-26T03:19:14.531Z,946.78
2022-09-26T03:20:14.277Z,946.77
2022-09-26T03:21:14.272Z,946.77
2022-09-26T03:22:14.226Z,946.81
2022-09-26T03:23:14.219Z,946.81
2022-09-26T03:24:14.201Z,946.81
2022-09-26T03:25:14.185Z,946.76
2022-09-26T03:26:14.203Z,946.79
2022-09-26T03:27:14.147Z,946.80
2022-09-26T03:28:14.150Z,946.83
2022-09-26T03:29:14.309Z,946.81
2022-09-26T03:30:14.113Z,946.83
2022-09-26T03:31:14.175Z,946.79
2022-09-26T03:32:14.190Z,946.80
2022-09-26T03:33:14.078Z,946.80
2022-09-26T03:34:14.064Z,946.77
2022-09-26T03:35:14.067Z,946.79
2022-09-26T03:36:14.063Z,946.79
2022-09-26T03:37:14.022Z,946.80
2022-09-26T03:38:14.603Z,946.78
2022-09-26T03:39:14.206Z,946.78
2022-09-26T03:40:14.033Z,946.78
2022-09-26T03:41:13.965Z,946.78
2022-09-26T03:42:13.960Z,946.76
2022-09-26T03:43:13.975Z,946.77
2022-09-26T03:44:13.952Z,946.75
2022-09-26T03:45:13.936Z,946.72
2022-09-26T03:46:13.929Z,946.71
2022-09-26T03:47:13.885Z,946.77
2022-09-26T03:48:13.887Z,946.72
2022-09-26T03:49:14.004Z,946.69
2022-09-26T03:50:13.860Z,946.66
2022-09-26T03:51:13.862Z,946.65
2022-09-26T03:52:13.824Z,946.65
2022-09-26T03:53:13.809Z,946.66
2022-09-26T03:54:13.838Z,946.68
2022-09-26T03:55:13.794Z,946.64
2022-09-26T03:56:13.799Z,946.67
2022-09-26T03:57:13.770Z,946.68
2022-09-26T03:58:13.750Z,946.64
2022-09-26T03:59:13.859Z,946.64
2022-09-26T04:00:13.744Z,946.65
2022-09-26T04:01:13.810Z,946.64
2022-09-26T04:02:13.769Z,946.67
2022-09-26T04:03:13.680Z,946.64
2022-09-26T04:04:13.670Z,946.69
2022-09-26T04:05:13.679Z,946.68
2022-09-26T04:06:13.634Z,946.67
2022-09-26T04:07:13.620Z,946.65
2022-09-26T04:08:13.609Z,946.64
2022-09-26T04:09:17.045Z,946.67
2022-09-26T04:10:13.613Z,946.68
2022-09-26T04:11:13.568Z,946.67
2022-09-26T04:12:13.553Z,946.67
2022-09-26T04:13:33.745Z,946.68
2022-09-26T04:14:13.535Z,946.64
2022-09-26T04:15:13.543Z,946.63
2022-09-26T04:16:13.558Z,946.63
2022-09-26T04:17:13.527Z,946.59
2022-09-26T04:18:13.478Z,946.60
2022-09-26T04:19:13.590Z,946.57
2022-09-26T04:20:13.475Z,946.57
2022-09-26T04:21:13.433Z,946.62
2022-09-26T04:22:13.427Z,946.61
2022-09-26T04:23:13.403Z,946.60
2022-09-26T04:24:13.393Z,946.56
2022-09-26T04:25:13.404Z,946.58
2022-09-26T04:26:14.864Z,946.59
2022-09-26T04:27:13.354Z,946.55
2022-09-26T04:28:13.353Z,946.53
2022-09-26T04:29:13.350Z,946.55
2022-09-26T04:30:13.318Z,946.52
2022-09-26T04:31:13.369Z,946.52
2022-09-26T04:32:13.291Z,946.53
2022-09-26T04:33:13.271Z,946.53
2022-09-26T04:34:13.287Z,946.52
2022-09-26T04:35:13.255Z,946.54
2022-09-26T04:36:13.237Z,946.54
2022-09-26T04:37:13.225Z,946.54
2022-09-26T04:38:13.240Z,946.54
2022-09-26T04:39:13.373Z,946.57
2022-09-26T04:40:13.229Z,946.54
2022-09-26T04:41:13.192Z,946.52
2022-09-26T04:42:13.146Z,946.50
2022-09-26T04:43:13.144Z,946.51
2022-09-26T04:44:13.158Z,946.50
2022-09-26T04:45:13.109Z,946.54
2022-09-26T04:46:15.885Z,946.51
2022-09-26T04:47:13.092Z,946.49
2022-09-26T04:48:13.084Z,946.48
2022-09-26T04:49:13.091Z,946.45
2022-09-26T04:50:13.044Z,946.42
2022-09-26T04:51:13.030Z,946.39
2022-09-26T04:52:13.020Z,946.35
2022-09-26T04:53:13.004Z,946.36
2022-09-26T04:54:13.019Z,946.36
2022-09-26T04:55:12.983Z,946.36
2022-09-26T04:56:12.962Z,946.38
2022-09-26T04:57:17.322Z,946.40
2022-09-26T04:58:12.972Z,946.42
2022-09-26T04:59:13.020Z,946.40
2022-09-26T05:00:12.971Z,946.37
2022-09-26T05:01:12.982Z,946.39
2022-09-26T05:02:13.049Z,946.35
2022-09-26T05:03:12.874Z,946.33
2022-09-26T05:04:12.865Z,946.31
2022-09-26T05:05:12.839Z,946.33
2022-09-26T05:06:12.859Z,946.32
2022-09-26T05:07:12.822Z,946.31
2022-09-26T05:08:12.802Z,946.31
2022-09-26T05:09:12.790Z,946.34
2022-09-26T05:10:12.775Z,946.32
2022-09-26T05:11:12.789Z,946.31
2022-09-26T05:12:12.775Z,946.32
2022-09-26T05:13:12.748Z,946.36
2022-09-26T05:14:12.728Z,946.33
2022-09-26T05:15:12.720Z,946.34
2022-09-26T05:16:12.733Z,946.33
2022-09-26T05:17:12.715Z,946.30
2022-09-26T05:18:12.668Z,946.37
2022-09-26T05:19:12.659Z,946.31
2022-09-26T05:20:12.644Z,946.34
2022-09-26T05:21:12.658Z,946.35
2022-09-26T05:22:12.647Z,946.34
2022-09-26T05:23:12.632Z,946.36
2022-09-26T05:24:12.613Z,946.33
2022-09-26T05:25:12.587Z,946.34
2022-09-26T05:26:12.562Z,946.34
2022-09-26T05:27:12.543Z,946.34
2022-09-26T05:28:12.540Z,946.35
2022-09-26T05:29:12.877Z,946.37
2022-09-26T05:30:12.510Z,946.35
2022-09-26T05:31:12.557Z,946.34
2022-09-26T05:32:12.507Z,946.35
2022-09-26T05:33:12.510Z,946.34
2022-09-26T05:34:18.367Z,946.37
2022-09-26T05:35:12.454Z,946.39
2022-09-26T05:36:12.453Z,946.37
2022-09-26T05:37:12.424Z,946.37
2022-09-26T05:38:12.443Z,946.37
2022-09-26T05:39:12.450Z,946.35
2022-09-26T05:40:12.432Z,946.34
2022-09-26T05:41:12.364Z,946.35
2022-09-26T05:42:12.362Z,946.37
2022-09-26T05:43:12.358Z,946.34
2022-09-26T05:44:12.315Z,946.37
2022-09-26T05:45:12.341Z,946.37
2022-09-26T05:46:12.345Z,946.36
2022-09-26T05:47:12.366Z,946.32
2022-09-26T05:48:12.279Z,946.31
2022-09-26T05:49:12.336Z,946.32
2022-09-26T05:50:12.272Z,946.31
2022-09-26T05:51:12.241Z,946.29
2022-09-26T05:52:12.234Z,946.32
2022-09-26T05:53:12.210Z,946.34
2022-09-26T05:54:12.182Z,946.29
2022-09-26T05:55:12.172Z,946.26
2022-09-26T05:56:17.649Z,946.28
2022-09-26T05:57:12.175Z,946.22
2022-09-26T05:58:12.130Z,946.24
2022-09-26T05:59:12.164Z,946.21
2022-09-26T06:00:12.106Z,946.22
2022-09-26T06:01:12.276Z,946.24
2022-09-26T06:02:13.508Z,946.29
2022-09-26T06:03:12.086Z,946.26
2022-09-26T06:04:12.059Z,946.26
2022-09-26T06:05:12.042Z,946.24
2022-09-26T06:06:12.055Z,946.28
2022-09-26T06:07:12.043Z,946.28
2022-09-26T06:08:12.017Z,946.29
2022-09-26T06:09:12.011Z,946.29
2022-09-26T06:10:11.975Z,946.28
2022-09-26T06:11:11.962Z,946.28
2022-09-26T06:12:11.962Z,946.30
2022-09-26T06:13:11.942Z,946.26
2022-09-26T06:14:11.925Z,946.28
2022-09-26T06:15:11.906Z,946.31
2022-09-26T06:16:11.912Z,946.32
2022-09-26T06:17:11.913Z,946.36
2022-09-26T06:18:11.871Z,946.36
2022-09-26T06:19:11.887Z,946.38
2022-09-26T06:20:11.837Z,946.45
2022-09-26T06:21:11.831Z,946.42
2022-09-26T06:22:11.836Z,946.41
2022-09-26T06:23:11.810Z,946.43
2022-09-26T06:24:11.817Z,946.38
2022-09-26T06:25:11.776Z,946.37
2022-09-26T06:26:11.755Z,946.38
2022-09-26T06:27:11.767Z,946.37
2022-09-26T06:28:11.761Z,946.40
2022-09-26T06:29:11.776Z,946.37
2022-09-26T06:30:11.709Z,946.35
2022-09-26T06:31:11.755Z,946.34
2022-09-26T06:32:11.721Z,946.33
2022-09-26T06:33:11.704Z,946.34
2022-09-26T06:34:11.652Z,946.33
2022-09-26T06:35:11.656Z,946.35
2022-09-26T06:36:11.650Z,946.33
2022-09-26T06:37:11.611Z,946.35
2022-09-26T06:38:11.638Z,946.34
2022-09-26T06:39:11.709Z,946.31
2022-09-26T06:40:11.697Z,946.34
2022-09-26T06:41:11.562Z,946.34
2022-09-26T06:42:11.571Z,946.36
2022-09-26T06:43:11.564Z,946.32
2022-09-26T06:44:11.533Z,946.33
2022-09-26T06:45:11.538Z,946.35
2022-09-26T06:46:11.486Z,946.33
2022-09-26T06:47:11.557Z,946.32
2022-09-26T06:48:11.462Z,946.34
2022-09-26T06:49:11.465Z,946.37
2022-09-26T06:50:11.467Z,946.34
2022-09-26T06:51:11.429Z,946.36
2022-09-26T06:52:11.443Z,946.33
2022-09-26T06:53:11.408Z,946.34
2022-09-26T06:54:11.412Z,946.31
2022-09-26T06:55:11.376Z,946.28
2022-09-26T06:56:11.359Z,946.29
2022-09-26T06:57:14.913Z,946.29
2022-09-26T06:58:11.332Z,946.23
2022-09-26T06:59:11.326Z,946.22
2022-09-26T07:00:11.305Z,946.26
2022-09-26T07:01:11.527Z,946.27
2022-09-26T07:02:11.450Z,946.26
2022-09-26T07:03:11.287Z,946.27
2022-09-26T07:04:11.252Z,946.26
2022-09-26T07:05:11.253Z,946.29
2022-09-26T07:06:11.232Z,946.34
2022-09-26T07:07:11.243Z,946.36
2022-09-26T07:08:11.200Z,946.33
2022-09-26T07:09:12.437Z,946.36
2022-09-26T07:10:11.167Z,946.36
2022-09-26T07:11:32.821Z,946.31
2022-09-26T07:12:15.498Z,946.32
2022-09-26T07:13:11.147Z,946.30
2022-09-26T07:14:11.124Z,946.30
2022-09-26T07:15:11.122Z,946.30
2022-09-26T07:16:11.159Z,946.31
2022-09-26T07:17:11.092Z,946.28
2022-09-26T07:18:11.080Z,946.27
2022-09-26T07:19:11.204Z,946.30
2022-09-26T07:20:11.034Z,946.31
2022-09-26T07:21:11.033Z,946.31
2022-09-26T07:22:11.011Z,946.34
2022-09-26T07:23:11.020Z,946.35
2022-09-26T07:24:10.987Z,946.31
2022-09-26T07:25:10.985Z,946.37
2022-09-26T07:26:10.963Z,946.38
2022-09-26T07:27:10.969Z,946.35
2022-09-26T07:28:10.944Z,946.41
2022-09-26T07:29:10.913Z,946.41
2022-09-26T07:30:10.903Z,946.46
2022-09-26T07:31:10.943Z,946.42
2022-09-26T07:32:10.868Z,946.40
2022-09-26T07:33:10.866Z,946.42
2022-09-26T07:34:14.590Z,946.41
2022-09-26T07:35:10.847Z,946.36
2022-09-26T07:36:10.823Z,946.40
2022-09-26T07:37:10.808Z,946.40
2022-09-26T07:38:10.824Z,946.42
2022-09-26T07:39:10.784Z,946.40
2022-09-26T07:40:10.843Z,946.38
2022-09-26T07:41:10.764Z,946.40
2022-09-26T07:42:10.763Z,946.38
2022-09-26T07:43:19.795Z,946.39
2022-09-26T07:45:27.881Z,946.38
2022-09-26T07:46:10.812Z,946.36
2022-09-26T07:47:10.673Z,946.38
2022-09-26T07:48:10.660Z,946.38
2022-09-26T07:49:10.704Z,946.33
2022-09-26T07:50:10.630Z,946.35
2022-09-26T07:51:10.622Z,946.30
2022-09-26T07:52:10.624Z,946.28
2022-09-26T07:53:10.592Z,946.32
2022-09-26T07:54:10.583Z,946.29
2022-09-26T07:55:10.567Z,946.26
2022-09-26T07:56:10.596Z,946.29
2022-09-26T07:57:10.575Z,946.30
2022-09-26T07:58:10.527Z,946.28
2022-09-26T07:59:10.525Z,946.33
2022-09-26T08:00:10.500Z,946.29
2022-09-26T08:01:10.504Z,946.29
2022-09-26T08:02:10.689Z,946.29
2022-09-26T08:03:10.541Z,946.27
2022-09-26T08:04:10.450Z,946.28
2022-09-26T08:05:10.438Z,946.36
2022-09-26T08:06:10.463Z,946.38
2022-09-26T08:07:10.419Z,946.33
2022-09-26T08:08:10.388Z,946.29
2022-09-26T08:09:10.385Z,946.34
2022-09-26T08:10:10.361Z,946.33
2022-09-26T08:11:10.389Z,946.34
2022-09-26T08:12:10.335Z,946.36
2022-09-26T08:13:10.327Z,946.36
2022-09-26T08:14:10.316Z,946.37
2022-09-26T08:15:10.320Z,946.44
2022-09-26T08:16:10.333Z,946.45
2022-09-26T08:17:14.052Z,946.43
2022-09-26T08:18:10.262Z,946.50
2022-09-26T08:19:10.271Z,946.48
2022-09-26T08:20:10.233Z,946.51
2022-09-26T08:21:10.264Z,946.51
2022-09-26T08:22:10.202Z,946.49
2022-09-26T08:23:10.231Z,946.50
2022-09-26T08:24:10.248Z,946.47
2022-09-26T08:25:10.168Z,946.48
2022-09-26T08:26:10.182Z,946.49
2022-09-26T08:27:10.139Z,946.46
2022-09-26T08:28:10.125Z,946.45
2022-09-26T08:29:10.136Z,946.46
2022-09-26T08:30:10.100Z,946.47
2022-09-26T08:31:10.172Z,946.44
2022-09-26T08:32:10.068Z,946.46
2022-09-26T08:33:10.062Z,946.44
2022-09-26T08:34:10.077Z,946.45
2022-09-26T08:35:10.061Z,946.39
2022-09-26T08:36:10.029Z,946.41
2022-09-26T08:37:10.023Z,946.45
2022-09-26T08:38:09.988Z,946.42
2022-09-26T08:39:10.083Z,946.42
2022-09-26T08:40:09.980Z,946.34
2022-09-26T08:41:09.952Z,946.36
2022-09-26T08:42:09.937Z,946.40
2022-09-26T08:43:09.955Z,946.34
2022-09-26T08:44:09.970Z,946.34
2022-09-26T08:45:09.904Z,946.38
2022-09-26T08:46:09.993Z,946.34
2022-09-26T08:47:09.875Z,946.39
2022-09-26T08:48:09.854Z,946.38
2022-09-26T08:49:09.851Z,946.36
2022-09-26T08:50:09.885Z,946.35
2022-09-26T08:51:09.813Z,946.33
2022-09-26T08:52:09.839Z,946.31
2022-09-26T08:53:09.784Z,946.32
2022-09-26T08:54:09.902Z,946.31
2022-09-26T08:55:09.768Z,946.27
2022-09-26T08:56:09.774Z,946.29
2022-09-26T08:57:09.775Z,946.29
2022-09-26T08:58:09.752Z,946.30
2022-09-26T08:59:09.714Z,946.27
2022-09-26T09:00:09.730Z,946.20
2022-09-26T09:01:09.685Z,946.20
2022-09-26T09:02:09.835Z,946.15
2022-09-26T09:03:09.714Z,946.12
2022-09-26T09:04:09.706Z,946.15
2022-09-26T09:05:09.657Z,946.18
2022-09-26T09:06:09.637Z,946.10
2022-09-26T09:07:09.630Z,946.10
2022-09-26T09:08:09.586Z,946.08
2022-09-26T09:09:09.569Z,946.07
2022-09-26T09:10:09.586Z,946.03
2022-09-26T09:11:09.539Z,946.02
2022-09-26T09:12:09.533Z,946.00
2022-09-26T09:13:09.514Z,946.02
2022-09-26T09:14:09.590Z,945.99
2022-09-26T09:15:24.774Z,945.99
2022-09-26T09:16:09.595Z,946.00
2022-09-26T09:17:09.486Z,946.01
2022-09-26T09:18:13.386Z,946.01
2022-09-26T09:19:09.445Z,945.96
2022-09-26T09:20:09.422Z,945.98
2022-09-26T09:21:09.418Z,945.91
2022-09-26T09:22:09.403Z,945.95
2022-09-26T09:23:09.400Z,945.93
2022-09-26T09:24:09.500Z,945.95
2022-09-26T09:25:09.353Z,945.93
2022-09-26T09:28:09.350Z,945.88
2022-09-26T09:29:10.719Z,945.87
2022-09-26T09:30:17.469Z,945.82
2022-09-26T09:31:09.343Z,945.83
2022-09-26T09:32:09.287Z,945.81
2022-09-26T09:33:09.281Z,945.85
2022-09-26T09:34:09.378Z,945.84
2022-09-26T09:35:09.258Z,945.82
2022-09-26T09:36:09.246Z,945.81
2022-09-26T09:37:09.197Z,945.80
2022-09-26T09:38:09.222Z,945.78
2022-09-26T09:39:09.168Z,945.78
2022-09-26T09:40:09.160Z,945.76
2022-09-26T09:41:09.167Z,945.71
2022-09-26T09:42:09.132Z,945.72
2022-09-26T09:43:09.119Z,945.69
2022-09-26T09:44:09.180Z,945.64
2022-09-26T09:45:09.110Z,945.62
2022-09-26T09:46:09.138Z,945.59
2022-09-26T09:47:09.062Z,945.62
2022-09-26T09:48:09.056Z,945.64
2022-09-26T09:49:09.062Z,945.60
2022-09-26T09:50:09.030Z,945.55
2022-09-26T09:51:09.034Z,945.54
2022-09-26T09:52:09.026Z,945.45
2022-09-26T09:53:08.986Z,945.49
2022-09-26T09:54:09.061Z,945.47
2022-09-26T09:55:08.950Z,945.42
2022-09-26T09:56:09.016Z,945.46
2022-09-26T09:57:08.937Z,945.53
2022-09-26T09:58:08.914Z,945.46
2022-09-26T09:59:08.902Z,945.47
2022-09-26T10:00:08.938Z,945.41
2022-09-26T10:01:08.873Z,945.41
2022-09-26T10:02:08.863Z,945.40
2022-09-26T10:03:09.005Z,945.40
2022-09-26T10:04:08.877Z,945.35
2022-09-26T10:05:08.819Z,945.34
2022-09-26T10:06:13.478Z,945.37
2022-09-26T10:07:08.854Z,945.30
2022-09-26T10:08:08.780Z,945.27
2022-09-26T10:09:38.164Z,945.29
2022-09-26T10:10:08.762Z,945.31
2022-09-26T10:11:08.735Z,945.28
2022-09-26T10:12:08.725Z,945.22
2022-09-26T10:13:08.744Z,945.22
2022-09-26T10:14:08.700Z,945.21
2022-09-26T10:15:08.683Z,945.22
2022-09-26T10:16:08.711Z,945.20
2022-09-26T10:17:08.683Z,945.21
2022-09-26T10:18:26.119Z,945.18
2022-09-26T10:19:08.635Z,945.11
2022-09-26T10:20:08.651Z,945.08
2022-09-26T10:21:08.617Z,945.06
2022-09-26T10:22:08.626Z,945.02
2022-09-26T10:23:08.579Z,944.97
2022-09-26T10:24:08.679Z,944.97
2022-09-26T10:25:08.650Z,944.97
2022-09-26T10:26:08.551Z,944.91
2022-09-26T10:27:08.557Z,944.91
2022-09-26T10:28:08.523Z,944.85
2022-09-26T10:29:08.503Z,944.85
2022-09-26T10:30:08.493Z,944.88
2022-09-26T10:31:08.620Z,944.86
2022-09-26T10:32:08.488Z,944.86
2022-09-26T10:33:08.469Z,944.84
2022-09-26T10:34:08.585Z,944.80
2022-09-26T10:35:08.429Z,944.81
2022-09-26T10:36:08.410Z,944.85
2022-09-26T10:37:08.415Z,944.79
2022-09-26T10:38:08.383Z,944.79
2022-09-26T10:39:08.388Z,944.79
2022-09-26T10:40:08.363Z,944.74
2022-09-26T10:41:08.521Z,944.73
2022-09-26T10:42:08.366Z,944.75
2022-09-26T10:43:08.321Z,944.73
2022-09-26T10:44:08.309Z,944.77
2022-09-26T10:45:08.286Z,944.69
2022-09-26T10:46:08.375Z,944.73
2022-09-26T10:47:08.266Z,944.74
2022-09-26T10:48:08.243Z,944.70
2022-09-26T10:49:08.252Z,944.69
2022-09-26T10:50:08.222Z,944.68
2022-09-26T10:51:08.236Z,944.70
2022-09-26T10:52:08.346Z,944.70
2022-09-26T10:53:08.186Z,944.73
2022-09-26T10:54:08.186Z,944.73
2022-09-26T10:55:08.160Z,944.71
2022-09-26T10:56:08.170Z,944.67
2022-09-26T10:57:08.129Z,944.66
2022-09-26T10:58:13.534Z,944.64
2022-09-26T10:59:08.114Z,944.59
2022-09-26T11:00:08.093Z,944.66
2022-09-26T11:01:08.100Z,944.64
2022-09-26T11:02:08.165Z,944.61
2022-09-26T11:03:08.129Z,944.68
2022-09-26T11:04:08.230Z,944.59
2022-09-26T11:05:08.040Z,944.62
2022-09-26T11:06:08.014Z,944.63
2022-09-26T11:07:08.002Z,944.62
2022-09-26T11:08:08.007Z,944.67
2022-09-26T11:09:07.974Z,944.62
2022-09-26T11:10:07.983Z,944.59
2022-09-26T11:11:07.945Z,944.61
2022-09-26T11:12:07.935Z,944.59
2022-09-26T11:13:07.938Z,944.60
2022-09-26T11:14:07.906Z,944.61
2022-09-26T11:15:07.923Z,944.59
2022-09-26T11:16:07.944Z,944.58
2022-09-26T11:17:07.867Z,944.53
2022-09-26T11:18:07.857Z,944.58
2022-09-26T11:19:07.875Z,944.57
2022-09-26T11:20:07.942Z,944.54
2022-09-26T11:21:23.118Z,944.55
2022-09-26T11:22:08.488Z,944.49
2022-09-26T11:23:07.784Z,944.54
2022-09-26T11:24:28.772Z,944.47
2022-09-26T11:25:07.772Z,944.46
2022-09-26T11:26:28.790Z,944.46
2022-09-26T11:28:16.432Z,944.44
2022-09-26T11:29:38.394Z,944.45
2022-09-26T11:31:26.165Z,944.40
2022-09-26T11:33:36.103Z,944.41
2022-09-26T11:34:58.069Z,944.39
2022-09-26T11:35:57.707Z,944.39
2022-09-26T11:36:36.684Z,944.35
2022-09-26T11:37:36.686Z,944.36
2022-09-26T11:38:36.648Z,944.35
2022-09-26T11:39:36.641Z,944.36
2022-09-26T11:40:36.686Z,944.39
2022-09-26T11:41:36.808Z,944.37
2022-09-26T11:42:36.643Z,944.40
2022-09-26T11:43:36.581Z,944.38
2022-09-26T11:44:36.592Z,944.34
2022-09-26T11:45:40.862Z,944.33
2022-09-26T11:46:36.654Z,944.30
2022-09-26T11:47:36.551Z,944.32
2022-09-26T11:48:36.544Z,944.32
2022-09-26T11:49:36.506Z,944.31
2022-09-26T11:50:36.492Z,944.34
2022-09-26T11:51:36.491Z,944.33
2022-09-26T11:52:36.486Z,944.24
2022-09-26T11:53:36.452Z,944.27
2022-09-26T11:54:36.446Z,944.21
2022-09-26T11:55:36.447Z,944.24
2022-09-26T11:56:36.425Z,944.20
2022-09-26T11:57:36.421Z,944.24
2022-09-26T11:58:36.381Z,944.20
2022-09-26T11:59:36.378Z,944.19
2022-09-26T12:00:36.388Z,944.18
2022-09-26T12:01:36.346Z,944.15
2022-09-26T12:02:36.422Z,944.20
2022-09-26T12:03:36.513Z,944.19
2022-09-26T12:04:36.304Z,944.16
2022-09-26T12:05:36.306Z,944.16
2022-09-26T12:06:36.283Z,944.14
2022-09-26T12:07:36.253Z,944.11
2022-09-26T12:08:36.265Z,944.13
2022-09-26T12:09:36.262Z,944.11
2022-09-26T12:10:36.220Z,944.05
2022-09-26T12:11:36.240Z,944.04
2022-09-26T12:12:40.441Z,944.05
2022-09-26T12:13:36.185Z,944.05
2022-09-26T12:14:36.242Z,943.96
2022-09-26T12:15:36.211Z,943.97
2022-09-26T12:16:36.168Z,943.93
2022-09-26T12:17:36.198Z,943.96
2022-09-26T12:18:36.140Z,943.93
2022-09-26T12:19:36.121Z,943.91
2022-09-26T12:20:36.086Z,943.89
2022-09-26T12:21:36.097Z,943.88
2022-09-26T12:22:36.105Z,943.89
2022-09-26T12:23:36.076Z,943.90
2022-09-26T12:24:36.031Z,943.85
2022-09-26T12:25:36.021Z,943.84
2022-09-26T12:26:36.129Z,943.84
2022-09-26T12:27:36.006Z,943.82
2022-09-26T12:28:36.060Z,943.82
2022-09-26T12:29:35.979Z,943.81
2022-09-26T12:30:35.950Z,943.78
2022-09-26T12:31:35.968Z,943.75
2022-09-26T12:32:35.926Z,943.75
2022-09-26T12:33:35.909Z,943.78
2022-09-26T12:34:35.920Z,943.78
2022-09-26T12:35:35.884Z,943.76
2022-09-26T12:36:35.867Z,943.73
2022-09-26T12:37:35.911Z,943.76
2022-09-26T12:38:35.840Z,943.75